• Join FlightAware (Why Join?)
  • Login
  • US Flag 
06:54AM EDT


 

Airport Tracker/Info


-or-


 

Live Flight TrackerFlight Track Log ✈ EJA122 ✈ 22-May-2013 ✈ KEWR - KPWK

Flight Track Log - Related Links

Times and Time Zones

All times are in EDT time to prevent confusion due to time zone crossing. See the EJA122 flight status page for this flight to view local times or setup timezone preferences in your user account.

Time Position Orientation Groundspeed Altitude Reporting Facility
EDT Latitude Longitude Course Direction KTS MPH feet Rate Location/Type
10:18AM 41.1381 -74.6975 294° West  Level FlightAware Approximate
10:19AM 41.1819 -74.8138 304° West  Level FlightAware Approximate
10:26AM 40.6667 -74.1833 294° West 180 207 1,300  Level New York TRACON
10:27AM 40.6333 -74.2167 217° Southwest 241 277 3,600 2,340 Climbing New York TRACON
10:28AM 40.6833 -74.2833 315° West 286 329 6,000 2,640 Climbing New York TRACON
10:29AM 40.7333 -74.3333 323° Northwest 275 316 8,900 2,460 Climbing New York TRACON
10:30AM 40.8000 -74.4000 323° Northwest 280 322 11,000 1,920 Climbing New York TRACON
10:31AM 40.8667 -74.4500 330° Northwest 306 352 12,600 1,680 Climbing New York TRACON
10:32AM 41.7344 -76.4197 294° West  Level FlightAware Approximate
10:32AM 40.9092 -74.4942 322° Northwest 320 368 13,500  Level New York Center
10:33AM 40.9761 -74.5528 327° Northwest 326 375 15,200 1,200 Climbing New York Center
10:34AM 41.0450 -74.6117 327° Northwest 347 399 16,000 360 Climbing New York Center
10:35AM 41.1278 -74.6881 325° Northwest 352 405 16,000  Level New York Center
10:36AM 41.1825 -74.8014 303° West 352 405 16,000 1,020 Level New York Center
10:37AM 41.2406 -74.9292 301° West 367 422 18,100 1,980 Climbing New York Center
10:38AM 41.2864 -75.0394 299° West 351 404 20,100 1,920 Climbing New York Center
10:39AM 41.3306 -75.1419 300° West 340 391 22,000 1,800 Climbing New York Center
10:40AM 41.3747 -75.2469 299° West 335 386 23,700 1,380 Climbing New York Center
10:41AM 41.4228 -75.3525 301° West 330 380 24,800 1,080 Climbing New York Center
10:42AM 41.4703 -75.4692 299° West 341 392 25,900 1,020 Climbing New York Center
10:43AM 41.5069 -75.5936 292° West 351 404 26,900 1,020 Climbing New York Center
10:44AM 41.5433 -75.7211 291° West 361 415 27,900 960 Climbing New York Center
10:45AM 41.5833 -75.8544 292° West 379 436 28,900 960 Climbing New York Center
10:46AM 41.6194 -75.9819 291° West 379 436 29,900 900 Climbing New York Center
10:47AM 41.6575 -76.1128 291° West 379 436 30,800 900 Climbing New York Center
10:48AM 41.6931 -76.2433 290° West 379 436 31,700 840 Climbing New York Center
10:49AM 41.7269 -76.3656 290° West 379 436 32,500 780 Climbing New York Center
10:50AM 41.7658 -76.5108 290° West 379 436 33,300 720 Climbing New York Center
10:51AM 41.8033 -76.6419 291° West 379 436 34,000 300 Climbing New York Center
10:52AM 41.8431 -76.7894 290° West 394 453 34,000  Level Cleveland Center
10:53AM 41.8811 -76.9294 290° West 407 468 34,000  Level Cleveland Center
10:54AM 41.9211 -77.0750 290° West 407 468 34,000  Level Cleveland Center
10:55AM 41.9608 -77.2208 290° West 412 474 34,000  Level Cleveland Center
10:56AM 42.0025 -77.3669 291° West 417 480 34,000  Level Cleveland Center
10:57AM 42.0397 -77.5103 289° West 417 480 34,000  Level Cleveland Center
10:58AM 42.0772 -77.6597 289° West 417 480 34,000  Level Cleveland Center
10:59AM 42.1161 -77.8064 290° West 417 480 34,000  Level Cleveland Center
11:00AM 42.1550 -77.9503 290° West 417 480 34,000  Level Cleveland Center
11:01AM 42.1936 -78.0972 290° West 417 480 34,000  Level Cleveland Center
11:02AM 42.2322 -78.2472 289° West 417 480 34,000  Level Cleveland Center
11:03AM 42.2683 -78.3861 289° West 417 480 34,000  Level Cleveland Center
11:04AM 42.3067 -78.5336 289° West 417 480 34,000  Level Cleveland Center
11:05AM 42.3425 -78.6814 288° West 412 474 34,000  Level Cleveland Center
11:06AM 42.3781 -78.8236 289° West 412 474 34,000  Level Cleveland Center
11:07AM 42.4156 -78.9689 289° West 412 474 34,000  Level Cleveland Center
11:08AM 42.4508 -79.1142 288° West 407 468 34,000  Level Cleveland Center
11:09AM 42.4903 -79.2597 290° West 407 468 34,000  Level Cleveland Center
11:10AM 42.5000 -79.4089 275° West 402 463 34,000  Level Cleveland Center
11:11AM 42.5058 -79.5608 273° West 402 463 34,000  Level Cleveland Center
11:12AM 42.5153 -79.7128 275° West 408 470 34,000  Level Cleveland Center
11:13AM 42.5225 -79.8678 274° West 408 470 34,000  Level Cleveland Center
11:14AM 42.5256 -80.0169 272° West 402 463 34,000  Level Cleveland Center
11:15AM 42.5325 -80.1831 273° West 402 463 34,000  Level Cleveland Center
11:16AM 42.5392 -80.3353 273° West 407 468 34,000  Level Cleveland Center
11:17AM 42.5456 -80.4875 273° West 407 468 34,000  Level Cleveland Center
11:18AM 42.5539 -80.6394 274° West 407 468 34,000  Level Cleveland Center
11:19AM 42.5581 -80.7917 272° West 401 461 34,000  Level Cleveland Center
11:20AM 42.5639 -80.9442 273° West 406 467 34,000  Level Cleveland Center
11:21AM 42.5653 -81.0964 271° West 406 467 34,000  Level Cleveland Center
11:22AM 42.5686 -81.2514 272° West 406 467 34,000  Level Cleveland Center
11:23AM 42.5678 -81.3981 270° West 401 461 34,000  Level Cleveland Center
11:24AM 42.5686 -81.5558 270° West 406 467 34,000  Level Cleveland Center
11:25AM 42.5672 -81.7025 269° West 398 458 34,000  Level Cleveland Center
11:26AM 42.5636 -81.8489 268° West 397 457 34,000  Level Cleveland Center
11:27AM 42.5639 -82.0039 270° West 403 464 34,000  Level Cleveland Center
11:28AM 42.5619 -82.1533 269° West 403 464 34,000  Level Cleveland Center
11:29AM 42.5619 -82.3056 270° West 403 464 34,000  Level Cleveland Center
11:30AM 42.5617 -82.4578 270° West 403 464 34,000  Level Cleveland Center
11:31AM 42.5592 -82.6072 269° West 403 464 34,000  Level Cleveland Center
11:32AM 42.5583 -82.7564 270° West 403 464 34,000  Level Cleveland Center
11:33AM 42.5556 -82.9086 269° West 403 464 34,000  Level Cleveland Center
11:34AM 42.5544 -83.0581 269° West 403 464 34,000 -2,040 Level Cleveland Center
11:35AM 42.5511 -83.2072 268° West 403 464 30,000 -1,080 Descending Cleveland Center
11:36AM 42.5497 -83.3567 269° West 403 464 31,900 120 Climbing Cleveland Center
11:37AM 42.5458 -83.5086 268° West 403 464 30,300 -960 Descending Cleveland Center
11:38AM 42.5419 -83.6606 268° West 403 464 30,000 -180 Descending Cleveland Center
11:39AM 42.5378 -83.8156 268° West 403 464 30,000  Level Cleveland Center
11:40AM 42.5353 -83.9731 269° West 403 464 30,000  Level Cleveland Center
11:41AM 42.5306 -84.1281 268° West 403 464 30,000  Level Cleveland Center
11:42AM 42.5258 -84.2828 268° West 408 470 30,000  Level Cleveland Center
11:43AM 42.5228 -84.4375 269° West 408 470 30,000  Level Cleveland Center
11:43AM 42.5244 -84.4711 274° West 415 478 30,000  Level Chicago Center
11:44AM 42.5200 -84.6253 268° West 412 474 30,000  Level Chicago Center
11:45AM 42.5147 -84.7806 267° West 414 476 30,000  Level Chicago Center
11:46AM 42.5097 -84.9342 268° West 411 473 30,000  Level Chicago Center
11:47AM 42.5047 -85.0892 268° West 410 472 30,000  Level Chicago Center
11:48AM 42.4981 -85.2756 267° West 414 476 30,000 -240 Level Chicago Center
11:49AM 42.4931 -85.4319 268° West 415 478 29,600 -1,380 Descending Chicago Center
11:50AM 42.4861 -85.5908 267° West 420 483 27,200 -2,280 Descending Chicago Center
11:51AM 42.4803 -85.7506 267° West 423 487 25,000 -2,160 Descending Chicago Center
11:52AM 42.4728 -85.9069 266° West 417 480 22,800 -2,160 Descending Chicago Center
11:54AM 42.4667 -86.0625 267° West 412 474 20,600 -1,380 Descending Chicago Center
11:55AM 42.4594 -86.2133 266° West 404 465 20,000 -600 Descending Chicago Center
11:56AM 42.4508 -86.3933 266° West 397 457 19,400 -1,560 Descending Chicago Center
11:57AM 42.4425 -86.5386 266° West 387 445 16,800 -2,520 Descending Chicago Center
11:58AM 42.4339 -86.6803 265° West 379 436 14,300 -2,280 Descending Chicago Center
11:59AM 42.4281 -86.8025 266° West 331 381 12,200 -1,980 Descending Chicago Center
12:00PM 42.4219 -86.9086 266° West 288 331 10,300 -1,680 Descending Chicago Center
12:01PM 42.4156 -87.0106 265° West 275 316 8,800 -1,800 Descending Chicago Center
12:02PM 42.4086 -87.1097 265° West 269 310 6,700 -2,040 Descending Chicago Center
12:03PM 42.4011 -87.2281 265° West 264 304 4,600 -1,800 Descending Chicago Center
12:04PM 42.3944 -87.3286 265° West 268 308 3,000 -840 Descending Chicago Center
12:05PM 42.3806 -87.4225 259° West 263 303 2,900 -360 Descending Chicago Center
12:06PM 42.3667 -87.5147 259° West 259 298 2,300 -300 Descending Chicago Center
12:07PM 42.3492 -87.6056 255° West 255 293 2,300  Level Chicago Center
12:08PM 42.3303 -87.7169 257° West 255 293 2,400  Climbing Chicago Center
12:09PM 42.3139 -87.8081 256° West 255 293 2,300  Descending Chicago Center
12:10PM 42.3025 -87.8831 258° West 233 268 2,400  Climbing Chicago Center
12:11PM 42.2903 -87.9528 257° West 210 242 2,300 -60 Descending Chicago Center
12:12PM 42.2453 -87.9678 194° South 196 226 2,300 -180 Level Chicago Center
12:13PM 42.1919 -87.9458 163° South 177 204 2,000 -360 Descending Chicago Center
12:14PM 42.1581 -87.9286 159° South 167 192 1,600 -420 Descending Chicago Center
12:17PM 42.1143 -87.9015 163° South  Level Estimated